首页
METAR-TAF:

METAR-TAF

机场 :

迪奥里·哈马尼国际机场

尼亞美, 尼日尔

纬度: 13-29N, 经度: 002-10E, 海拔: 223米

当前天气观测

该预报发布于1小时和14分钟前的10:00 UTC
风速6节,风向西转西北
温度 30°C
湿度 62%
气压 1016 hPa
能见度10公里或以上
少量云层高于2300英尺
少量云层高于3300英尺, 积雨云.

METAR: DRRN 231000Z 30006KT 9999 FEW023 FEW033CB 30/22 Q1016 TEMPO 4000 TS SHRA

时间: 12:14 (11:14 UTC)

预报

该预报发布于6小时和14分钟前的05:00 UTC
预报有效从23日的 06点(UTC)到 24日的 12点(UTC)
风速58节,风向西南
能见度10公里或以上
少量云层高于1800英尺
短暂存在
从 23日的 09点(UTC)到 23日的 12点(UTC)
多云层高于1500英尺
几率 40% :
短暂存在
从 23日的 15点(UTC)到 23日的 19点(UTC)
风速18节,风向多变
能見度: 2500
散云层高于2300英尺
少量云层高于2800英尺, 积雨云.
雷暴, 雨,

TAF: DRRN 230500Z 2306/2412 23058KT 9999 FEW018 TEMPO 2309/2312 BKN015 PROB40 TEMPO 2315/2319 VRB18KT 2500 TSRA SCT023 FEW028CB

超过4000个机场的气象观测和天气预报(METAR&TAF报告)。

可查询的气象台以黄色和红色小点在地图上表示。

将鼠标移到小点上方,可查看气象台名称。

然后点击查看天气观测和预报。

如需切换地图:点击带黑十字的绿色按钮放大地图;点击带横线的绿色按钮缩小地图;或者点击绿色箭头查看邻近地区的地图。


METAR-TAF: